This is the latest recevied weather packets stored in our database for station/object N0KTA-2. If no packets are shown the sender has not sent any weather packets the latest 1 day(s).
| Time | Temp. | Humidity | Pressure | Rain* | Wind** | Luminosity | Snow |
|---|---|---|---|---|---|---|---|
| 1778095263 | 16.11° C | 41% | 1015.6 hPa | 0 mm | - | - | - |
| 1778094664 | 16.11° C | 42% | 1015.6 hPa | 0 mm | - | - | - |
| 1778094063 | 16.11° C | 42% | 1015.6 hPa | 0 mm | - | - | - |
| 1778092263 | 15.56° C | 46% | 1015.9 hPa | 0 mm | - | - | - |
| 1778091063 | 15° C | 48% | 1016.3 hPa | 0 mm | - | - | - |
| 1778089863 | 15° C | 47% | 1016.3 hPa | 0 mm | - | - | - |
| 1778089264 | 14.44° C | 48% | 1016.4 hPa | 0 mm | - | - | - |
| 1778088064 | 14.44° C | 50% | 1016.6 hPa | 0 mm | - | - | - |
| 1778086864 | 13.89° C | 51% | 1016.7 hPa | 0 mm | - | - | - |
| 1778085664 | 13.33° C | 55% | 1016.6 hPa | 0 mm | - | - | - |
| 1778084464 | 13.33° C | 61% | 1016.4 hPa | 0 mm | - | - | - |
| 1778079665 | 10.56° C | 68% | 1016.7 hPa | 0 mm | - | - | - |
| 1778079064 | 10° C | 71% | 1016.4 hPa | 0 mm | - | - | - |
| 1778078464 | 10° C | 70% | 1016.6 hPa | 0 mm | - | - | - |
| 1778070664 | 7.78° C | 81% | 1015.9 hPa | 0 mm | - | - | - |
| 1778067666 | 7.22° C | 83% | 1014.7 hPa | 0 mm | - | - | - |
| 1778067065 | 7.22° C | 83% | 1014.6 hPa | 0 mm | - | - | - |
| 1778063464 | 7.22° C | 84% | 1013.9 hPa | 0 mm | - | - | - |
| 1778062865 | 7.22° C | 84% | 1014.1 hPa | 0 mm | - | - | - |
| 1778062265 | 7.22° C | 84% | 1013.8 hPa | 0 mm | - | - | - |
| 1778061065 | 7.22° C | 83% | 1013.7 hPa | 0 mm | - | - | - |
| 1778059866 | 7.22° C | 84% | 1013.9 hPa | 0 mm | - | - | - |
| 1778053765 | 7.78° C | 79% | 1013.2 hPa | 0 mm | - | - | - |
| 1778053166 | 7.78° C | 79% | 1012.9 hPa | 0 mm | - | - | - |
| 1778052565 | 7.78° C | 80% | 1012.3 hPa | 0 mm | - | - | - |
* Rain latest hour (hover to see other rain measurements)
** Current wind speed in m/s (hover to see current wind gust speed)